Time;durP1;ratioP1;P1;durP2;ratioP2;P2;SDS_P1;SDS_P2;PMS_P1;PMS_P2;Temp;Humidity;BMP_temperature;BMP_pressure;BME280_temperature;BME280_humidity;BME280_pressure;Samples;Min_cycle;Max_cycle;Signal;HPM_P1;HPM_P2
2023/02/15 00:01:48;;;;;;;51.63;23.67;;;;;;;15.11;78.99;102755.00;5099573;28;20115;-50
2023/02/15 00:04:20;;;;;;;53.65;23.80;;;;;;;15.10;78.99;102751.44;5101002;28;20032;-52
2023/02/15 00:06:46;;;;;;;52.17;23.17;;;;;;;15.13;78.83;102752.97;5097927;28;20041;-49
2023/02/15 00:09:12;;;;;;;60.97;25.52;;;;;;;14.96;79.56;102744.16;5101592;28;20102;-52
2023/02/15 00:12:12;;;;;;;53.38;22.85;;;;;;;14.91;79.94;102739.28;5100553;28;20037;-52
2023/02/15 00:14:30;;;;;;;56.45;24.25;;;;;;;14.98;80.07;102737.56;5097041;28;20079;-52
2023/02/15 00:16:59;;;;;;;52.77;24.13;;;;;;;15.01;79.76;102731.84;5097715;28;20036;-53
2023/02/15 00:19:25;;;;;;;50.75;23.50;;;;;;;14.95;79.85;102732.53;5099573;28;20264;-52
2023/02/15 00:21:50;;;;;;;57.15;23.67;;;;;;;14.83;80.95;102733.97;5100178;28;20036;-48
2023/02/15 00:24:18;;;;;;;56.77;24.23;;;;;;;14.84;80.45;102730.25;5099040;28;20055;-49
2023/02/15 00:26:44;;;;;;;51.30;24.30;;;;;;;14.88;80.82;102720.78;5100297;28;20049;-49
2023/02/15 00:29:12;;;;;;;57.00;26.87;;;;;;;14.72;81.03;102725.25;5101066;28;20051;-51
2023/02/15 00:31:37;;;;;;;53.10;24.90;;;;;;;14.74;81.47;102725.91;5097386;28;20071;-52
2023/02/15 00:34:08;;;;;;;53.20;23.95;;;;;;;14.67;81.70;102719.53;5099079;28;20063;-56
2023/02/15 00:36:34;;;;;;;62.05;25.55;;;;;;;14.69;81.27;102722.88;5082503;28;20120;-54
2023/02/15 00:38:59;;;;;;;55.87;24.73;;;;;;;14.45;82.18;102727.38;5097945;28;20035;-51
2023/02/15 00:41:25;;;;;;;54.27;23.30;;;;;;;14.45;82.83;102713.91;5082537;28;20024;-51
2023/02/15 00:43:51;;;;;;;56.45;23.55;;;;;;;14.55;82.64;102716.41;5077549;28;20040;-49
2023/02/15 00:46:17;;;;;;;51.47;24.23;;;;;;;14.44;83.13;102704.16;5097656;28;20089;-48
2023/02/15 00:48:43;;;;;;;50.43;23.27;;;;;;;14.38;83.78;102712.09;5095391;28;20132;-50
2023/02/15 00:51:08;;;;;;;57.05;24.88;;;;;;;14.41;83.42;102706.34;5098958;28;20047;-53
2023/02/15 00:53:34;;;;;;;57.53;24.50;;;;;;;14.43;83.05;102713.25;5104366;28;20028;-52
2023/02/15 00:56:00;;;;;;;55.00;24.07;;;;;;;14.42;83.07;102708.88;5099598;28;20029;-51
2023/02/15 00:58:26;;;;;;;61.28;24.33;;;;;;;14.26;83.83;102707.13;5085801;28;20038;-49
2023/02/15 01:00:51;;;;;;;57.17;24.70;;;;;;;14.19;84.60;102706.13;5099081;28;20052;-51
2023/02/15 01:03:19;;;;;;;54.42;22.67;;;;;;;14.03;85.82;102696.25;5079124;28;20034;-50
2023/02/15 01:05:47;;;;;;;61.10;26.45;;;;;;;14.12;85.03;102697.91;5077918;28;20036;-51
2023/02/15 01:08:13;;;;;;;55.97;24.15;;;;;;;14.11;84.87;102698.94;5101082;28;20043;-53
2023/02/15 01:10:38;;;;;;;58.15;25.25;;;;;;;14.10;84.63;102697.25;5078020;28;20036;-53
2023/02/15 01:13:04;;;;;;;43.53;19.77;;;;;;;14.03;85.07;102690.88;5096780;28;20032;-49
2023/02/15 01:15:35;;;;;;;56.13;24.30;;;;;;;13.97;85.52;102683.50;5101032;28;20033;-51
2023/02/15 01:18:02;;;;;;;59.42;25.38;;;;;;;14.02;85.56;102695.44;5096924;28;20025;-53
2023/02/15 01:20:28;;;;;;;56.97;24.52;;;;;;;13.92;86.00;102689.38;5099059;28;20032;-51
2023/02/15 01:22:57;;;;;;;53.35;22.50;;;;;;;13.99;86.00;102692.22;5099174;28;20020;-56
2023/02/15 01:25:22;;;;;;;;;;;;;;;13.95;85.72;102683.66;5077807;28;20028;-48
2023/02/15 01:27:48;;;;;;;52.83;22.30;;;;;;;13.94;85.99;102684.66;5097952;28;19947;-50
2023/02/15 01:30:15;;;;;;;61.90;25.07;;;;;;;14.12;85.79;102679.09;5081278;28;20036;-49
2023/02/15 01:32:41;;;;;;;55.13;25.52;;;;;;;14.32;83.61;102682.19;5097788;28;20275;-52
2023/02/15 01:35:08;;;;;;;64.10;25.80;;;;;;;14.23;83.68;102680.56;5097045;28;20040;-52
2023/02/15 01:37:35;;;;;;;66.00;25.35;;;;;;;14.19;83.77;102680.06;5100125;28;20047;-48
2023/02/15 01:40:03;;;;;;;63.17;25.83;;;;;;;14.15;83.99;102681.44;5097502;28;20033;-49
2023/02/15 01:42:29;;;;;;;60.17;25.60;;;;;;;14.10;84.03;102675.72;5103838;28;20047;-51
2023/02/15 01:45:04;;;;;;;55.83;24.70;;;;;;;14.10;83.72;102681.13;5114552;28;20107;-48
2023/02/15 01:48:01;;;;;;;61.25;24.45;;;;;;;14.02;84.04;102678.44;5099016;28;20279;-52
2023/02/15 01:50:38;;;;;;;57.60;24.92;;;;;;;13.96;84.59;102668.38;5094821;28;20083;-54
2023/02/15 01:53:19;;;;;;;60.70;25.92;;;;;;;14.06;83.86;102671.69;5079306;28;20037;-51
2023/02/15 01:55:55;;;;;;;57.65;25.83;;;;;;;13.95;83.93;102666.69;5082334;28;20055;-50
2023/02/15 01:58:24;;;;;;;60.08;25.50;;;;;;;14.04;83.84;102662.97;5103313;28;20056;-53
2023/02/15 02:00:51;;;;;;;60.72;24.85;;;;;;;13.94;83.70;102663.16;5086581;28;20027;-47
2023/02/15 02:03:16;;;;;;;58.97;25.23;;;;;;;13.97;83.61;102662.84;5102017;28;20082;-52
2023/02/15 02:05:42;;;;;;;55.78;25.10;;;;;;;13.93;83.74;102672.25;5101564;28;20036;-53
2023/02/15 02:08:11;;;;;;;65.23;27.47;;;;;;;13.85;83.92;102662.38;5105106;28;20403;-51
2023/02/15 02:10:36;;;;;;;57.33;24.15;;;;;;;13.76;84.32;102649.94;5101427;28;20280;-50
2023/02/15 02:13:06;;;;;;;60.03;26.30;;;;;;;13.80;84.15;102655.81;5097092;28;20034;-51
2023/02/15 02:15:53;;;;;;;52.50;25.10;;;;;;;13.70;84.62;102647.94;5103268;28;20036;-51
2023/02/15 02:18:54;;;;;;;53.95;24.90;;;;;;;13.73;84.60;102640.38;5081013;28;20032;-49
2023/02/15 02:21:50;;;;;;;55.58;24.05;;;;;;;13.72;84.47;102640.53;5099615;28;20032;-53
2023/02/15 02:24:29;;;;;;;58.78;23.17;;;;;;;13.71;84.06;102638.88;5083144;28;20028;-52
2023/02/15 02:27:09;;;;;;;57.78;25.00;;;;;;;13.66;84.03;102641.25;5109643;28;20032;-50
2023/02/15 02:29:56;;;;;;;60.45;24.67;;;;;;;13.50;84.19;102637.56;5078338;28;20052;-49
2023/02/15 02:32:53;;;;;;;57.90;24.13;;;;;;;13.55;83.73;102627.13;5100873;28;20095;-48
2023/02/15 02:35:38;;;;;;;53.47;23.08;;;;;;;13.47;84.45;102627.16;5081205;28;20032;-50
2023/02/15 02:38:11;;;;;;;54.35;24.42;;;;;;;13.45;84.04;102624.63;5100532;28;20075;-50
2023/02/15 02:40:59;;;;;;;62.95;24.88;;;;;;;13.46;83.66;102620.09;5078275;28;20028;-51
2023/02/15 02:43:29;;;;;;;;;;;;;;;13.39;83.96;102624.47;5098673;28;20071;-50
2023/02/15 02:46:05;;;;;;;49.38;22.90;;;;;;;13.29;84.01;102617.41;5080976;28;19916;-51
2023/02/15 02:48:32;;;;;;;52.47;22.33;;;;;;;13.29;84.50;102614.72;5102090;28;20036;-49
2023/02/15 02:50:58;;;;;;;54.80;25.10;;;;;;;13.12;85.28;102629.16;5098802;28;20048;-52
2023/02/15 02:53:25;;;;;;;56.90;25.33;;;;;;;13.17;85.23;102610.72;5097374;28;20070;-52
2023/02/15 02:55:55;;;;;;;50.60;23.10;;;;;;;13.20;84.92;102615.75;5094054;28;20024;-50
2023/02/15 02:58:31;;;;;;;62.78;25.05;;;;;;;13.14;85.06;102611.03;5095401;28;20132;-50
2023/02/15 03:01:05;;;;;;;55.63;24.48;;;;;;;13.23;84.28;102601.13;5098533;28;20043;-53
2023/02/15 03:03:42;;;;;;;54.75;23.88;;;;;;;13.02;85.26;102603.34;5097313;28;20057;-49
2023/02/15 03:06:26;;;;;;;56.78;23.67;;;;;;;13.00;85.03;102597.28;5096765;28;20052;-51
2023/02/15 03:09:01;;;;;;;59.65;24.00;;;;;;;12.87;85.46;102594.25;5095783;28;20091;-54
2023/02/15 03:11:29;;;;;;;51.92;21.70;;;;;;;12.78;86.45;102585.38;5116244;28;20032;-53
2023/02/15 03:13:54;;;;;;;;;;;;;;;12.67;87.02;102585.72;5101723;28;20047;-50
2023/02/15 03:16:27;;;;;;;51.93;21.13;;;;;;;12.65;86.21;102579.66;5082719;28;19912;-51
2023/02/15 03:19:09;;;;;;;52.85;22.77;;;;;;;12.86;85.87;102577.31;5079489;28;20027;-51
2023/02/15 03:21:57;;;;;;;56.55;22.23;;;;;;;12.73;86.32;102579.66;5095953;28;20036;-52
2023/02/15 03:24:24;;;;;;;;;;;;;;;12.65;86.27;102579.66;5092429;28;20028;-51
2023/02/15 03:26:51;;;;;;;56.40;22.73;;;;;;;12.51;86.86;102578.47;5083103;28;19909;-52
2023/02/15 03:29:20;;;;;;;49.25;22.40;;;;;;;12.60;86.19;102575.66;5072831;28;20020;-50
2023/02/15 03:31:56;;;;;;;47.08;20.40;;;;;;;12.54;86.68;102568.22;5091491;28;20028;-51
2023/02/15 03:34:21;;;;;;;51.95;22.02;;;;;;;12.48;86.65;102572.44;5095042;28;20040;-48
2023/02/15 03:37:04;;;;;;;50.83;21.42;;;;;;;12.46;86.87;102570.91;5100302;28;20036;-50
2023/02/15 03:39:39;;;;;;;50.20;22.00;;;;;;;12.24;87.87;102567.03;5078588;28;20072;-53
2023/02/15 03:42:09;;;;;;;54.50;21.83;;;;;;;12.14;88.38;102568.00;5097684;28;20037;-53
2023/02/15 03:44:50;;;;;;;52.25;21.75;;;;;;;12.21;87.83;102567.34;5080573;28;20056;-51
2023/02/15 03:47:20;;;;;;;52.85;20.73;;;;;;;12.33;86.65;102561.50;5077922;28;20088;-50
2023/02/15 03:49:54;;;;;;;51.17;22.20;;;;;;;12.15;87.68;102564.31;5101045;28;20032;-52
2023/02/15 03:52:23;;;;;;;49.95;22.10;;;;;;;12.25;86.77;102568.72;5101487;28;20039;-51
2023/02/15 03:54:49;;;;;;;50.20;21.50;;;;;;;12.24;86.50;102567.03;5095774;28;20029;-53
2023/02/15 04:03:05;;;;;;;55.50;23.40;;;;;;;12.07;86.72;102556.25;5103758;28;20047;-48
2023/02/15 04:05:31;;;;;;;54.72;23.45;;;;;;;11.91;87.49;102547.13;5101000;28;20043;-48
2023/02/15 04:07:56;;;;;;;54.43;22.50;;;;;;;12.04;87.06;102551.22;5098767;28;20040;-50
2023/02/15 04:13:06;;;;;;;52.05;21.17;;;;;;;11.71;88.32;102554.59;5094335;28;20028;-53
2023/02/15 04:18:16;;;;;;;53.00;22.88;;;;;;;11.51;89.46;102553.97;5096541;28;20037;-50
2023/02/15 04:26:14;;;;;;;48.45;21.35;;;;;;;11.61;89.20;102551.16;5098299;28;20040;-54
2023/02/15 04:28:39;;;;;;;48.60;22.73;;;;;;;11.68;88.26;102548.69;5100150;28;20078;-52
2023/02/15 04:31:05;;;;;;;49.20;21.57;;;;;;;11.70;87.98;102549.38;5098548;28;20040;-50
2023/02/15 04:33:30;;;;;;;50.27;20.97;;;;;;;11.48;88.76;102549.78;5098955;28;20158;-52
2023/02/15 04:35:56;;;;;;;52.20;21.37;;;;;;;11.28;90.46;102551.84;5099540;28;20029;-51
2023/02/15 04:38:22;;;;;;;48.97;20.57;;;;;;;11.34;89.83;102553.03;5100821;28;20035;-53
2023/02/15 04:40:51;;;;;;;48.45;20.25;;;;;;;11.42;89.40;102553.13;5100944;28;20280;-50
2023/02/15 04:43:19;;;;;;;50.92;21.50;;;;;;;11.46;89.11;102548.25;5101631;28;20048;-51
2023/02/15 04:45:49;;;;;;;47.38;20.40;;;;;;;11.33;89.16;102541.50;5101966;28;20033;-49
2023/02/15 04:48:17;;;;;;;53.47;21.40;;;;;;;11.40;88.51;102541.69;5102526;28;20036;-48
2023/02/15 04:50:43;;;;;;;;;;;;;;;11.35;89.10;102546.69;5100722;28;20035;-48
2023/02/15 04:53:08;;;;;;;48.60;21.23;;;;;;;11.12;90.31;102536.50;5099579;28;19916;-51
2023/02/15 04:55:33;;;;;;;52.27;21.97;;;;;;;11.26;89.26;102531.59;5098262;28;20071;-54
2023/02/15 04:57:59;;;;;;;52.37;20.27;;;;;;;11.21;89.68;102529.38;5098226;28;20083;-51
2023/02/15 05:00:24;;;;;;;55.67;21.40;;;;;;;10.99;90.55;102525.38;5097487;28;20281;-54
2023/02/15 05:02:50;;;;;;;57.30;21.13;;;;;;;11.11;89.87;102525.97;5095513;28;20032;-53
2023/02/15 05:05:16;;;;;;;59.87;20.57;;;;;;;11.27;88.74;102522.53;5098542;28;20032;-50
2023/02/15 05:07:41;;;;;;;48.57;22.07;;;;;;;10.87;90.87;102516.78;5099823;28;20276;-51
2023/02/15 05:10:07;;;;;;;50.30;20.90;;;;;;;10.95;90.24;102524.00;5098385;28;20059;-50
2023/02/15 05:12:33;;;;;;;53.25;21.50;;;;;;;11.14;89.30;102517.63;5101708;28;20035;-48
2023/02/15 05:14:58;;;;;;;60.70;21.33;;;;;;;11.08;89.27;102518.25;5098505;28;20099;-52
2023/02/15 05:17:24;;;;;;;48.58;19.90;;;;;;;11.03;89.67;102516.88;5099082;28;20039;-51
2023/02/15 05:19:50;;;;;;;48.50;21.83;;;;;;;10.87;90.24;102519.44;5102539;28;20070;-49
2023/02/15 05:22:16;;;;;;;49.97;21.23;;;;;;;10.96;90.48;102517.69;5098169;28;20028;-52
2023/02/15 05:30:11;;;;;;;56.70;23.13;;;;;;;10.39;93.26;102509.00;5104879;28;20040;-50
2023/02/15 05:32:37;;;;;;;;;;;;;;;10.61;92.31;102529.09;5095314;28;20037;-51
2023/02/15 05:35:03;;;;;;;53.13;21.30;;;;;;;10.86;90.01;102520.44;5094170;28;19916;-48
2023/02/15 05:37:29;;;;;;;52.85;22.67;;;;;;;10.67;90.93;102526.81;5103706;28;20028;-51
2023/02/15 05:39:54;;;;;;;51.70;21.90;;;;;;;10.89;89.37;102518.28;5097671;28;20201;-49
2023/02/15 05:42:20;;;;;;;52.23;23.10;;;;;;;10.89;89.28;102520.13;5098382;28;20065;-52
2023/02/15 05:44:45;;;;;;;50.13;20.40;;;;;;;10.93;88.67;102521.50;5103380;28;20340;-51
2023/02/15 05:47:10;;;;;;;49.50;20.23;;;;;;;11.01;88.18;102526.91;5100106;28;20027;-54
2023/02/15 05:49:36;;;;;;;54.88;22.58;;;;;;;10.81;88.83;102518.22;5081183;28;20027;-49
2023/02/15 05:52:02;;;;;;;53.50;20.57;;;;;;;10.49;89.88;102518.78;5096200;28;20036;-50
2023/02/15 05:54:28;;;;;;;56.13;22.87;;;;;;;10.45;91.45;102520.94;5098415;28;20032;-50
2023/02/15 05:56:54;;;;;;;53.85;22.08;;;;;;;10.58;90.32;102518.72;5102198;28;20028;-48
2023/02/15 05:59:19;;;;;;;50.73;21.10;;;;;;;10.81;88.71;102522.72;5096261;28;20037;-54
2023/02/15 06:01:45;;;;;;;53.50;21.17;;;;;;;10.46;90.40;102519.94;5106239;28;20047;-47
2023/02/15 06:04:10;;;;;;;53.90;22.23;;;;;;;10.53;90.26;102518.34;5098400;28;20108;-50
2023/02/15 06:06:36;;;;;;;53.70;21.70;;;;;;;10.61;90.02;102513.06;5100332;28;20028;-51
2023/02/15 06:09:01;;;;;;;52.23;21.70;;;;;;;10.22;92.20;102512.50;5101515;28;20032;-50
2023/02/15 06:11:27;;;;;;;51.37;22.60;;;;;;;10.05;93.41;102512.31;5096246;28;20289;-54
2023/02/15 06:13:53;;;;;;;56.08;21.50;;;;;;;10.09;95.07;102515.53;5095762;28;20028;-54
2023/02/15 06:16:18;;;;;;;49.40;20.70;;;;;;;9.81;96.31;102527.09;5098546;28;20112;-49
2023/02/15 06:18:44;;;;;;;58.43;22.17;;;;;;;9.95;95.63;102530.25;5099911;28;20071;-49
2023/02/15 06:21:09;;;;;;;49.57;18.80;;;;;;;10.08;94.55;102512.00;5100185;28;20288;-51
2023/02/15 06:23:35;;;;;;;49.93;20.20;;;;;;;10.55;90.83;102512.81;5095459;28;20028;-52
2023/02/15 06:26:00;;;;;;;60.20;23.48;;;;;;;10.23;92.16;102514.19;5099136;28;20111;-53
2023/02/15 06:28:26;;;;;;;55.97;22.37;;;;;;;10.33;91.78;102509.59;5099838;28;20051;-48
2023/02/15 06:30:52;;;;;;;64.90;22.27;;;;;;;10.17;92.17;102505.78;5099901;28;20035;-48
2023/02/15 06:33:18;;;;;;;42.35;16.88;;;;;;;10.36;90.88;102511.13;5099235;28;20339;-49
2023/02/15 06:35:44;;;;;;;49.77;22.60;;;;;;;10.24;91.44;102505.16;5099408;28;20033;-54
2023/02/15 06:38:10;;;;;;;58.30;22.17;;;;;;;10.52;89.70;102510.47;5100832;28;20308;-50
2023/02/15 06:40:35;;;;;;;55.67;22.20;;;;;;;10.33;90.28;102510.44;5100694;28;20032;-52
2023/02/15 06:43:01;;;;;;;53.00;21.13;;;;;;;10.32;89.99;102506.09;5098250;28;20059;-49
2023/02/15 06:45:27;;;;;;;54.77;22.70;;;;;;;10.02;91.86;102507.28;5096283;28;20058;-49
2023/02/15 06:47:53;;;;;;;48.88;21.65;;;;;;;10.10;92.11;102511.88;5099316;28;20038;-51
2023/02/15 06:50:19;;;;;;;58.07;23.17;;;;;;;10.12;91.52;102508.03;5097410;28;20040;-51
2023/02/15 06:52:45;;;;;;;56.60;21.92;;;;;;;9.98;92.67;102513.94;5099578;28;20273;-48
2023/02/15 06:55:10;;;;;;;61.97;23.63;;;;;;;10.07;91.54;102507.66;5081324;28;20060;-48
2023/02/15 06:57:36;;;;;;;60.13;23.38;;;;;;;9.94;92.55;102515.22;5102154;28;20059;-50
2023/02/15 07:00:04;;;;;;;52.58;22.27;;;;;;;10.01;92.26;102506.44;5079831;28;20036;-50
2023/02/15 07:02:31;;;;;;;54.90;22.20;;;;;;;9.74;92.69;102505.47;5098258;28;20028;-53
2023/02/15 07:04:56;;;;;;;56.10;22.58;;;;;;;9.89;92.88;102502.31;5098403;28;20032;-48
2023/02/15 07:07:22;;;;;;;60.37;21.67;;;;;;;9.99;93.06;102502.25;5096863;28;20046;-50
2023/02/15 07:09:47;;;;;;;54.80;22.17;;;;;;;9.68;94.81;102510.56;5094969;28;20264;-48
2023/02/15 07:14:58;;;;;;;56.88;22.58;;;;;;;9.60;96.33;102506.81;5094105;28;20028;-52
2023/02/15 07:17:23;;;;;;;58.85;24.23;;;;;;;9.55;96.37;102510.91;5095720;28;20044;-52
2023/02/15 07:19:49;;;;;;;56.28;22.70;;;;;;;9.81;94.71;102515.56;5098551;28;20048;-54
2023/02/15 07:22:14;;;;;;;55.13;22.63;;;;;;;9.98;93.53;102511.25;5098001;28;20031;-49
2023/02/15 07:24:40;;;;;;;56.40;22.53;;;;;;;10.12;93.66;102505.38;5100088;28;20047;-51
2023/02/15 07:27:07;;;;;;;57.83;23.73;;;;;;;10.14;91.25;102500.72;5095521;28;20039;-53
2023/02/15 07:29:32;;;;;;;64.55;24.73;;;;;;;10.00;93.53;102501.25;5099917;28;20039;-51
2023/02/15 07:31:58;;;;;;;62.08;23.92;;;;;;;10.02;93.99;102491.25;5096073;28;20032;-53
2023/02/15 07:34:24;;;;;;;55.50;23.87;;;;;;;10.55;91.23;102497.63;5100070;28;20100;-51
2023/02/15 07:36:50;;;;;;;59.73;23.90;;;;;;;10.50;89.56;102499.06;5102794;28;20036;-52
2023/02/15 07:39:16;;;;;;;60.00;23.33;;;;;;;9.96;93.59;102490.00;5102758;28;20057;-52
2023/02/15 07:41:41;;;;;;;50.70;21.00;;;;;;;10.08;92.25;102492.47;5103238;28;20029;-52
2023/02/15 07:44:12;;;;;;;56.60;24.65;;;;;;;10.53;90.25;102490.75;5099684;28;20260;-49
2023/02/15 07:46:38;;;;;;;52.72;22.58;;;;;;;10.70;90.02;102487.22;5100504;28;20048;-50
2023/02/15 07:49:03;;;;;;;52.90;22.17;;;;;;;10.30;90.83;102478.66;5100257;28;20028;-51
2023/02/15 07:51:29;;;;;;;49.50;21.17;;;;;;;10.25;91.02;102488.94;5101095;28;20037;-52
2023/02/15 07:53:55;;;;;;;55.03;23.03;;;;;;;9.81;94.85;102486.19;5102139;28;20067;-54
2023/02/15 07:56:20;;;;;;;58.03;24.17;;;;;;;9.90;94.17;102483.44;5103836;28;20352;-52
2023/02/15 07:58:52;;;;;;;51.07;21.67;;;;;;;9.89;95.04;102475.56;5101947;28;20040;-53
2023/02/15 08:01:23;;;;;;;49.13;22.58;;;;;;;9.78;94.33;102473.94;5098611;28;20033;-51
2023/02/15 08:03:50;;;;;;;57.20;22.75;;;;;;;9.97;94.06;102466.81;5097769;28;20036;-50
2023/02/15 08:06:15;;;;;;;52.95;23.52;;;;;;;9.75;93.23;102474.25;5101574;28;20055;-51
2023/02/15 08:08:42;;;;;;;67.45;23.65;;;;;;;9.90;93.66;102464.72;5098341;28;20099;-48
2023/02/15 08:11:36;;;;;;;61.47;23.00;;;;;;;10.28;92.22;102472.63;5098950;28;20055;-49
2023/02/15 08:14:16;;;;;;;52.80;23.30;;;;;;;10.59;89.68;102458.88;5098617;28;20040;-49
2023/02/15 08:16:44;;;;;;;57.00;23.27;;;;;;;10.44;89.84;102463.06;5100222;28;20099;-53
2023/02/15 08:19:16;;;;;;;59.70;23.45;;;;;;;10.63;88.34;102463.91;5102980;28;20043;-53
2023/02/15 08:21:53;;;;;;;55.25;22.20;;;;;;;10.73;88.48;102468.16;5103286;28;20056;-51
2023/02/15 08:24:20;;;;;;;;;;;;;;;10.59;88.15;102466.03;5102603;28;20036;-49
2023/02/15 08:26:47;;;;;;;58.40;23.25;;;;;;;10.64;89.35;102463.75;5100459;28;19913;-49
2023/02/15 08:29:18;;;;;;;57.20;23.40;;;;;;;10.94;87.89;102466.09;5099210;28;20036;-49
2023/02/15 08:31:44;;;;;;;52.00;23.70;;;;;;;11.28;86.61;102460.78;5096533;28;20065;-51
2023/02/15 08:34:13;;;;;;;57.33;23.05;;;;;;;10.97;87.15;102453.25;5099793;28;20048;-49
2023/02/15 08:36:38;;;;;;;53.78;21.77;;;;;;;11.24;86.49;102459.41;5101432;28;20066;-49
2023/02/15 08:39:06;;;;;;;47.63;20.40;;;;;;;12.01;83.97;102458.53;5100379;28;20033;-50
2023/02/15 08:41:34;;;;;;;54.75;22.23;;;;;;;12.16;83.27;102452.53;5100609;28;20083;-52
2023/02/15 08:44:02;;;;;;;52.25;24.13;;;;;;;12.42;81.97;102457.72;5096869;28;20043;-52
2023/02/15 08:46:30;;;;;;;50.10;23.58;;;;;;;12.44;80.61;102452.19;5082369;28;20092;-52
2023/02/15 08:48:57;;;;;;;49.38;22.25;;;;;;;13.04;78.76;102455.47;5098405;28;20029;-51
2023/02/15 08:51:25;;;;;;;49.85;20.58;;;;;;;13.23;78.65;102456.06;5094612;28;20036;-50
2023/02/15 08:53:54;;;;;;;46.35;22.05;;;;;;;13.60;76.09;102452.72;5096790;28;20044;-49
2023/02/15 08:56:23;;;;;;;47.95;23.45;;;;;;;13.76;75.94;102456.34;5099410;28;20028;-52
2023/02/15 08:58:48;;;;;;;46.15;21.95;;;;;;;14.05;74.24;102452.97;5096764;28;20029;-53
2023/02/15 09:01:20;;;;;;;45.40;21.07;;;;;;;14.49;72.62;102453.31;5103217;28;20116;-51
2023/02/15 09:03:48;;;;;;;44.35;20.70;;;;;;;14.79;71.08;102447.16;5096428;28;20045;-54
2023/02/15 09:06:14;;;;;;;52.97;21.40;;;;;;;14.36;71.99;102450.38;5103362;28;20066;-49
2023/02/15 09:08:40;;;;;;;49.63;22.40;;;;;;;14.71;72.15;102445.38;5098112;28;20106;-50
2023/02/15 09:11:10;;;;;;;47.70;21.60;;;;;;;14.49;71.24;102448.75;5102810;28;20029;-53
2023/02/15 09:13:36;;;;;;;52.17;23.55;;;;;;;14.48;71.66;102441.69;5098359;28;20032;-50
2023/02/15 09:16:04;;;;;;;48.25;22.65;;;;;;;14.67;71.15;102444.88;5098116;28;20067;-51
2023/02/15 09:18:37;;;;;;;48.50;21.50;;;;;;;15.13;70.63;102443.94;5098526;28;20036;-53
2023/02/15 09:21:13;;;;;;;48.25;23.05;;;;;;;15.51;69.25;102445.63;5093774;28;20055;-54
2023/02/15 09:23:39;;;;;;;45.28;23.02;;;;;;;15.82;68.57;102451.78;5099032;28;20062;-50
2023/02/15 09:26:08;;;;;;;49.63;23.02;;;;;;;16.55;65.86;102456.22;5102546;28;20033;-51
2023/02/15 09:28:34;;;;;;;46.85;22.27;;;;;;;16.75;65.53;102448.25;5100796;28;20036;-50
2023/02/15 09:31:13;;;;;;;46.22;21.35;;;;;;;16.44;65.25;102447.63;5102663;28;20032;-49
2023/02/15 09:33:40;;;;;;;52.42;24.05;;;;;;;15.88;66.63;102446.47;5093688;28;20052;-49
2023/02/15 09:36:13;;;;;;;53.67;23.58;;;;;;;16.38;66.55;102443.00;5097160;28;20047;-51
2023/02/15 09:38:38;;;;;;;44.63;22.50;;;;;;;16.19;65.79;102442.63;5095961;28;20039;-54
2023/02/15 09:41:41;;;;;;;51.05;22.42;;;;;;;16.89;65.14;102441.06;5060751;28;20772;-48
2023/02/15 09:44:31;;;;;;;52.97;25.73;;;;;;;16.82;64.21;102445.59;5099634;28;20036;-48
2023/02/15 09:47:20;;;;;;;54.80;24.10;;;;;;;16.61;65.82;102444.63;5095721;28;21215;-52
2023/02/15 09:50:08;;;;;;;46.77;23.97;;;;;;;17.18;64.10;102442.72;5097007;28;20276;-53
2023/02/15 09:52:49;;;;;;;48.83;23.27;;;;;;;17.72;62.61;102450.19;5096599;28;20325;-52
2023/02/15 09:55:29;;;;;;;49.37;22.50;;;;;;;18.31;61.13;102450.50;5099925;28;20269;-48
2023/02/15 09:58:05;;;;;;;44.77;23.57;;;;;;;18.25;60.04;102446.75;5097802;28;20275;-54
2023/02/15 10:00:36;;;;;;;50.17;24.27;;;;;;;18.33;59.53;102445.72;5103859;28;20341;-50
2023/02/15 10:03:17;;;;;;;53.57;22.03;;;;;;;18.82;57.79;102454.44;5098347;28;20277;-52
2023/02/15 10:06:20;;;;;;;45.73;24.00;;;;;;;19.02;56.84;102446.28;5096205;28;20744;-49
2023/02/15 10:09:14;;;;;;;43.87;22.23;;;;;;;19.31;56.62;102448.69;5091274;28;20281;-52
2023/02/15 10:11:57;;;;;;;47.43;23.80;;;;;;;19.73;54.91;102459.97;5096578;28;20303;-53
2023/02/15 10:14:45;;;;;;;48.63;22.87;;;;;;;20.43;53.86;102452.78;5095660;28;20282;-51
2023/02/15 10:17:34;;;;;;;46.03;23.02;;;;;;;19.69;55.52;102447.84;5095706;28;20272;-48
2023/02/15 10:20:10;;;;;;;42.83;23.20;;;;;;;19.87;54.41;102454.44;5101078;28;20092;-50
2023/02/15 10:22:45;;;;;;;48.57;25.37;;;;;;;19.68;55.06;102454.31;5080520;28;20281;-48
2023/02/15 10:25:42;;;;;;;49.23;22.87;;;;;;;19.88;53.71;102454.22;5096595;28;20284;-47
2023/02/15 10:28:23;;;;;;;45.77;23.53;;;;;;;20.27;53.72;102464.19;5098448;28;20265;-49
2023/02/15 10:30:57;;;;;;;47.33;23.47;;;;;;;20.12;53.41;102457.22;5095824;28;20257;-50
2023/02/15 10:33:43;;;;;;;44.30;23.40;;;;;;;20.28;52.75;102449.56;5094890;28;20269;-51
2023/02/15 10:36:39;;;;;;;46.20;22.80;;;;;;;21.11;51.76;102458.41;5103027;28;20307;-50
2023/02/15 10:39:34;;;;;;;44.73;24.03;;;;;;;21.48;50.67;102462.97;5095286;28;20276;-48
2023/02/15 10:42:15;;;;;;;44.40;23.60;;;;;;;22.94;48.55;102462.75;5095410;28;20285;-50
2023/02/15 10:45:03;;;;;;;42.17;23.27;;;;;;;23.38;46.70;102461.50;5098021;28;20036;-50
2023/02/15 10:48:00;;;;;;;50.90;23.43;;;;;;;23.45;46.37;102462.19;5098889;28;20062;-50
2023/02/15 10:50:46;;;;;;;44.45;23.33;;;;;;;23.48;46.23;102462.53;5097529;28;20062;-55
2023/02/15 10:53:36;;;;;;;44.23;23.47;;;;;;;24.54;44.60;102472.25;5092624;28;20036;-48
2023/02/15 10:56:20;;;;;;;40.30;21.90;;;;;;;25.09;43.09;102467.00;5098409;28;20043;-53
2023/02/15 10:58:56;;;;;;;41.23;21.93;;;;;;;23.97;43.63;102461.22;5097253;28;20061;-53
2023/02/15 11:01:31;;;;;;;46.23;23.33;;;;;;;24.05;43.84;102465.47;5093061;28;20028;-52
2023/02/15 11:04:35;;;;;;;44.63;23.50;;;;;;;24.31;43.19;102458.50;5095761;28;20051;-48
2023/02/15 11:07:08;;;;;;;48.97;24.83;;;;;;;24.86;42.53;102455.22;5089725;28;20029;-51
2023/02/15 11:09:41;;;;;;;41.73;22.43;;;;;;;25.46;41.73;102455.38;5099860;28;20109;-55
2023/02/15 11:12:14;;;;;;;44.80;24.13;;;;;;;25.05;41.61;102450.28;5097988;28;20032;-52
2023/02/15 11:14:53;;;;;;;43.93;22.97;;;;;;;25.44;41.44;102452.06;5098543;28;20035;-49
2023/02/15 11:17:25;;;;;;;42.83;23.60;;;;;;;24.99;41.48;102451.25;5096240;28;20024;-56
2023/02/15 11:20:18;;;;;;;40.63;23.87;;;;;;;24.03;42.67;102445.78;5096267;28;20096;-52
2023/02/15 11:22:49;;;;;;;46.10;24.50;;;;;;;23.59;43.71;102432.69;5093763;28;20042;-54
2023/02/15 11:25:19;;;;;;;46.47;24.37;;;;;;;23.11;43.92;102430.09;5095812;28;20032;-55
2023/02/15 11:27:47;;;;;;;45.27;23.03;;;;;;;23.03;44.43;102423.13;5099468;28;20070;-53
2023/02/15 11:30:15;;;;;;;45.50;23.27;;;;;;;23.01;44.25;102430.72;5097201;28;20057;-54
2023/02/15 11:32:44;;;;;;;43.43;23.43;;;;;;;23.28;44.20;102426.66;5100271;28;20058;-55
2023/02/15 11:35:09;;;;;;;48.90;23.53;;;;;;;23.64;43.79;102416.38;5095386;28;20090;-54
2023/02/15 11:37:57;;;;;;;45.33;23.67;;;;;;;24.33;42.66;102411.78;5098179;28;20028;-54
2023/02/15 11:40:30;;;;;;;42.57;22.87;;;;;;;24.72;41.79;102413.69;5093983;28;20028;-54
2023/02/15 11:42:58;;;;;;;47.00;23.30;;;;;;;25.26;40.94;102418.47;5092844;28;20032;-53
2023/02/15 11:45:28;;;;;;;45.13;23.07;;;;;;;25.06;41.40;102406.22;5096961;28;20020;-51
2023/02/15 11:47:56;;;;;;;47.77;23.33;;;;;;;25.50;40.58;102410.00;5097490;28;20040;-55
2023/02/15 11:50:25;;;;;;;45.83;23.07;;;;;;;24.91;41.16;102397.81;5097142;28;20055;-53
2023/02/15 11:53:00;;;;;;;44.90;22.47;;;;;;;25.73;40.31;102395.16;5096925;28;20058;-54
2023/02/15 11:55:29;;;;;;;41.70;23.80;;;;;;;26.13;39.48;102403.94;5098332;28;20035;-54